Time;durP1;ratioP1;P1;durP2;ratioP2;P2;SDS_P1;SDS_P2;PMS_P1;PMS_P2;Temp;Humidity;BMP_temperature;BMP_pressure;BME280_temperature;BME280_humidity;BME280_pressure;Samples;Min_cycle;Max_cycle;Signal;HPM_P1;HPM_P2
2023/01/29 00:01:03;;;;;;;4.72;3.40;;;;;;;2.61;57.48;98336.94;4906744;28;20284;-76
2023/01/29 00:03:29;;;;;;;3.88;3.03;;;;;;;2.55;57.62;98342.75;4941488;28;20256;-76
2023/01/29 00:05:54;;;;;;;10.15;3.03;;;;;;;2.63;57.15;98342.72;4945595;28;20346;-76
2023/01/29 00:08:19;;;;;;;4.65;2.88;;;;;;;2.57;56.65;98327.94;4944602;28;20208;-76
2023/01/29 00:10:45;;;;;;;5.22;3.10;;;;;;;2.56;57.31;98323.78;4903947;28;20639;-76
2023/01/29 00:13:10;;;;;;;4.57;3.15;;;;;;;2.66;57.04;98329.53;4917828;28;20209;-76
2023/01/29 00:15:35;;;;;;;5.05;2.85;;;;;;;2.66;56.57;98324.41;4941612;28;20322;-75
2023/01/29 00:18:01;;;;;;;3.45;2.65;;;;;;;2.64;56.49;98326.34;4927277;28;20314;-76
2023/01/29 00:20:26;;;;;;;3.75;2.42;;;;;;;2.61;56.40;98324.09;4943631;28;20732;-76
2023/01/29 00:22:51;;;;;;;3.17;2.75;;;;;;;2.61;56.38;98321.53;4927911;28;20216;-76
2023/01/29 00:25:17;;;;;;;4.32;2.83;;;;;;;2.65;56.21;98324.56;4929332;28;20265;-76
2023/01/29 00:27:43;;;;;;;3.97;2.53;;;;;;;2.57;56.58;98321.06;4946913;28;20246;-76
2023/01/29 00:30:15;;;;;;;2.90;2.33;;;;;;;2.60;56.51;98310.44;4914124;28;20303;-76
2023/01/29 00:32:40;;;;;;;3.95;2.65;;;;;;;2.67;56.82;98310.56;4937078;28;20191;-75
2023/01/29 00:35:07;;;;;;;3.50;2.60;;;;;;;2.63;55.03;98301.59;4941690;28;20659;-76
2023/01/29 00:37:32;;;;;;;3.72;2.42;;;;;;;2.56;55.80;98305.78;4944463;28;20778;-76
2023/01/29 00:39:57;;;;;;;5.20;3.05;;;;;;;2.45;57.16;98309.53;4945680;28;20288;-76
2023/01/29 00:45:07;;;;;;;4.82;3.47;;;;;;;2.46;57.15;98307.75;4947552;28;20192;-76
2023/01/29 00:47:33;;;;;;;5.20;3.58;;;;;;;2.41;56.70;98318.50;4948570;28;20649;-76
2023/01/29 00:50:00;;;;;;;5.38;3.20;;;;;;;2.34;56.86;98326.06;4931474;28;20362;-76
2023/01/29 00:52:25;;;;;;;6.75;3.42;;;;;;;2.42;56.21;98318.34;4931575;28;20580;-77
2023/01/29 00:55:00;;;;;;;4.55;3.25;;;;;;;2.55;56.51;98322.16;4947526;28;20188;-76
2023/01/29 00:57:27;;;;;;;4.57;2.78;;;;;;;2.39;55.50;98313.53;4947641;28;20208;-76
2023/01/29 00:59:53;;;;;;;6.28;3.17;;;;;;;2.29;56.31;98323.19;4949920;28;20161;-76
2023/01/29 01:05:12;;;;;;;4.72;3.30;;;;;;;2.39;56.96;98334.09;4936245;28;20162;-76
2023/01/29 01:07:41;;;;;;;3.97;2.80;;;;;;;2.35;56.25;98335.38;4940416;28;20180;-76
2023/01/29 01:10:19;;;;;;;4.10;3.17;;;;;;;2.22;56.02;98335.06;4948217;28;20207;-76
2023/01/29 01:12:45;;;;;;;4.82;2.92;;;;;;;2.30;55.74;98331.72;4932220;28;20169;-76
2023/01/29 01:15:11;;;;;;;5.75;3.10;;;;;;;2.34;56.47;98336.34;4946902;28;20238;-76
2023/01/29 01:17:36;;;;;;;5.22;3.28;;;;;;;2.34;56.76;98331.19;4930414;28;20168;-76
2023/01/29 01:20:02;;;;;;;3.42;2.85;;;;;;;2.49;55.83;98333.13;4927866;28;20196;-76
2023/01/29 01:22:28;;;;;;;4.28;3.15;;;;;;;2.40;57.17;98329.78;4927545;28;20199;-76
2023/01/29 01:24:53;;;;;;;4.57;3.03;;;;;;;2.42;56.57;98338.13;4939401;28;20196;-76
2023/01/29 01:27:18;;;;;;;6.28;3.38;;;;;;;2.47;57.26;98340.19;4922138;28;20477;-76
2023/01/29 01:29:45;;;;;;;4.47;2.92;;;;;;;2.34;57.56;98336.34;4924914;28;20431;-76
2023/01/29 01:32:10;;;;;;;4.47;3.30;;;;;;;2.36;56.62;98336.97;4943831;28;20187;-76
2023/01/29 01:34:36;;;;;;;5.65;3.72;;;;;;;2.18;56.61;98334.59;4944359;28;20216;-77
2023/01/29 01:37:02;;;;;;;4.68;3.38;;;;;;;2.30;57.48;98342.78;4923195;28;20169;-76
2023/01/29 01:39:27;;;;;;;5.88;3.38;;;;;;;2.30;57.21;98336.84;4949123;28;20288;-76
2023/01/29 01:41:53;;;;;;;4.45;3.17;;;;;;;2.33;57.26;98332.19;4945497;28;20294;-76
2023/01/29 01:44:49;;;;;;;4.95;3.50;;;;;;;2.49;57.00;98331.34;4929276;28;20834;-76
2023/01/29 01:47:16;;;;;;;4.65;2.90;;;;;;;2.34;57.39;98335.56;4944068;28;20158;-76
2023/01/29 01:49:43;;;;;;;5.10;3.50;;;;;;;2.37;57.08;98324.94;4924779;28;20204;-76
2023/01/29 01:52:08;;;;;;;8.50;4.07;;;;;;;2.26;57.08;98328.63;4927476;28;20663;-76
2023/01/29 01:54:34;;;;;;;4.10;3.08;;;;;;;2.35;57.03;98327.69;4913423;28;20281;-76
2023/01/29 01:57:14;;;;;;;4.75;3.42;;;;;;;2.44;57.65;98320.75;4936582;28;20191;-76
2023/01/29 01:59:44;;;;;;;4.80;3.45;;;;;;;2.43;57.38;98327.66;4912827;28;20706;-75
2023/01/29 02:10:27;;;;;;;5.50;3.60;;;;;;;2.34;57.67;98320.91;4946756;28;20248;-77
2023/01/29 02:12:53;;;;;;;6.05;3.50;;;;;;;2.37;57.50;98314.66;4927581;28;20271;-77
2023/01/29 02:15:18;;;;;;;4.85;3.28;;;;;;;2.35;57.69;98309.69;4929018;28;20302;-77
2023/01/29 02:17:47;;;;;;;5.53;3.03;;;;;;;2.45;56.61;98312.09;4947943;28;20272;-77
2023/01/29 02:20:28;;;;;;;4.78;2.80;;;;;;;2.53;57.52;98309.47;4928773;28;20165;-77
2023/01/29 02:22:58;;;;;;;4.10;3.20;;;;;;;2.42;57.26;98305.50;4945627;28;20250;-76
2023/01/29 02:26:00;;;;;;;6.95;3.42;;;;;;;2.59;56.53;98301.13;4947118;28;20192;-77
2023/01/29 02:28:34;;;;;;;4.00;3.30;;;;;;;2.51;56.12;98297.78;4947624;28;20218;-77
2023/01/29 02:31:18;;;;;;;5.53;3.03;;;;;;;2.55;55.52;98294.72;4925639;28;20203;-76
2023/01/29 02:34:26;;;;;;;4.82;2.60;;;;;;;2.48;55.85;98290.38;4926124;28;20640;-77
2023/01/29 02:37:08;;;;;;;4.22;2.70;;;;;;;2.46;56.36;98290.53;4936489;28;20273;-77
2023/01/29 02:39:43;;;;;;;3.88;3.13;;;;;;;2.47;56.34;98286.19;4917740;28;20596;-76
2023/01/29 02:42:26;;;;;;;6.10;2.70;;;;;;;2.40;55.88;98281.72;4939422;28;20161;-76
2023/01/29 02:45:04;;;;;;;4.57;2.65;;;;;;;2.49;55.90;98279.16;4945672;28;20215;-76
2023/01/29 02:47:33;;;;;;;4.13;2.90;;;;;;;2.25;56.36;98286.72;4926766;28;20598;-77
2023/01/29 02:50:17;;;;;;;4.47;3.10;;;;;;;2.39;56.63;98279.31;4943261;28;20193;-77
2023/01/29 02:52:57;;;;;;;3.33;2.42;;;;;;;2.34;56.29;98271.28;4944753;28;20264;-76
2023/01/29 02:55:35;;;;;;;4.60;2.92;;;;;;;2.37;55.63;98278.69;4945217;28;20186;-76
2023/01/29 02:58:10;;;;;;;3.63;2.83;;;;;;;2.23;56.13;98272.47;4944957;28;20294;-77
2023/01/29 03:00:40;;;;;;;4.22;2.42;;;;;;;2.22;56.26;98270.84;4945155;28;20273;-76
2023/01/29 03:03:16;;;;;;;4.57;2.42;;;;;;;2.34;55.96;98261.81;4928335;28;20189;-76
2023/01/29 03:05:57;;;;;;;3.45;2.58;;;;;;;2.34;56.10;98263.59;4928820;28;20208;-76
2023/01/29 03:08:41;;;;;;;3.25;2.38;;;;;;;2.23;56.83;98262.19;4944309;28;20161;-76
2023/01/29 03:11:12;;;;;;;3.35;2.40;;;;;;;2.14;56.68;98268.28;4944963;28;20169;-76
2023/01/29 03:13:43;;;;;;;4.22;2.25;;;;;;;2.20;56.91;98258.16;4944930;28;20618;-76
2023/01/29 03:16:18;;;;;;;5.32;2.78;;;;;;;2.22;56.67;98274.19;4912313;28;20369;-76
2023/01/29 03:18:49;;;;;;;4.45;2.90;;;;;;;2.14;57.62;98293.97;4928429;28;20334;-76
2023/01/29 03:32:34;;;;;;;3.65;2.47;;;;;;;2.04;57.21;98294.94;4932861;28;20696;-76
2023/01/29 03:35:02;;;;;;;4.32;3.00;;;;;;;2.03;57.99;98310.53;4925527;28;20582;-76
2023/01/29 03:37:40;;;;;;;4.47;2.90;;;;;;;2.10;57.66;98308.09;4926428;28;20160;-76
2023/01/29 03:40:08;;;;;;;4.10;2.85;;;;;;;2.08;57.61;98310.03;4925084;28;20291;-76
2023/01/29 03:42:34;;;;;;;5.18;2.80;;;;;;;2.03;57.53;98306.19;4919117;28;20698;-76
2023/01/29 03:45:18;;;;;;;4.88;3.35;;;;;;;2.19;57.43;98309.69;4935413;28;20209;-76
2023/01/29 03:48:02;;;;;;;4.68;2.90;;;;;;;2.03;57.44;98307.94;4955146;28;20284;-76
2023/01/29 03:50:37;;;;;;;5.57;3.35;;;;;;;2.08;57.31;98312.63;4934649;28;20127;-76
2023/01/29 03:53:29;;;;;;;5.13;2.95;;;;;;;2.11;58.41;98312.25;4922051;28;20214;-76
2023/01/29 03:56:02;;;;;;;4.95;2.95;;;;;;;2.12;58.48;98308.75;4922404;28;20360;-76
2023/01/29 03:58:41;;;;;;;4.18;2.60;;;;;;;2.09;58.36;98316.78;4943120;28;20188;-76
2023/01/29 04:01:18;;;;;;;5.13;3.72;;;;;;;2.12;58.06;98316.44;4943670;28;20290;-76
2023/01/29 04:03:57;;;;;;;4.88;3.13;;;;;;;2.10;58.66;98320.97;4944117;28;20514;-76
2023/01/29 04:06:26;;;;;;;4.95;3.72;;;;;;;2.02;58.87;98335.41;4943839;28;20642;-76
2023/01/29 04:08:57;;;;;;;4.25;3.33;;;;;;;2.01;57.59;98330.44;4933382;28;20193;-76
2023/01/29 04:11:23;;;;;;;4.00;2.95;;;;;;;2.03;57.54;98323.38;4943490;28;20729;-76
2023/01/29 04:13:50;;;;;;;4.55;3.03;;;;;;;2.00;57.99;98324.47;4921830;28;20189;-76
2023/01/29 04:16:20;;;;;;;4.55;3.03;;;;;;;2.03;58.88;98323.38;4942671;28;20401;-76
2023/01/29 04:18:46;;;;;;;6.13;3.05;;;;;;;1.85;57.66;98321.75;4928733;28;20292;-76
2023/01/29 04:21:12;;;;;;;3.97;2.78;;;;;;;2.13;57.46;98307.78;4939627;28;20106;-76
2023/01/29 04:23:38;;;;;;;3.83;2.50;;;;;;;2.10;56.49;98306.34;4940348;28;20648;-76
2023/01/29 04:26:13;;;;;;;3.67;2.65;;;;;;;2.20;56.35;98314.69;4923968;28;20244;-76
2023/01/29 04:28:48;;;;;;;4.50;2.58;;;;;;;2.18;56.26;98310.69;4940234;28;20374;-76
2023/01/29 04:31:14;;;;;;;4.43;2.38;;;;;;;2.08;56.68;98313.41;4941862;28;20262;-76
2023/01/29 04:34:05;;;;;;;3.45;2.40;;;;;;;2.38;55.80;98301.66;4925749;28;20559;-76
2023/01/29 04:36:45;;;;;;;4.22;2.70;;;;;;;2.43;55.45;98299.41;4941438;28;20295;-76
2023/01/29 04:39:17;;;;;;;4.80;2.45;;;;;;;2.00;54.89;98296.22;4933164;28;20694;-76
2023/01/29 04:41:55;;;;;;;4.55;2.47;;;;;;;2.22;55.00;98294.75;4941458;28;20645;-76
2023/01/29 04:44:28;;;;;;;5.70;2.55;;;;;;;2.06;56.60;98282.75;4919462;28;20452;-76
2023/01/29 04:47:27;;;;;;;4.68;2.58;;;;;;;2.22;56.14;98286.25;4936451;28;20187;-76
2023/01/29 04:50:22;;;;;;;3.80;2.38;;;;;;;2.14;56.24;98261.38;4944857;28;20351;-76
2023/01/29 04:53:06;;;;;;;4.50;2.60;;;;;;;2.15;56.39;98249.34;4934181;28;20302;-76
2023/01/29 04:55:35;;;;;;;3.25;2.47;;;;;;;2.02;58.16;98272.94;4936625;28;20710;-76
2023/01/29 04:58:25;;;;;;;4.75;2.53;;;;;;;2.15;57.35;98280.16;4943568;28;20278;-77
2023/01/29 05:00:52;;;;;;;3.80;2.45;;;;;;;2.02;57.32;98276.34;4929616;28;20243;-76
2023/01/29 05:03:19;;;;;;;5.93;2.78;;;;;;;1.94;56.80;98273.75;4946134;28;20616;-76
2023/01/29 05:05:47;;;;;;;4.07;2.83;;;;;;;1.86;57.25;98276.34;4944327;28;20555;-76
2023/01/29 05:08:15;;;;;;;5.18;2.70;;;;;;;1.85;57.12;98277.28;4943538;28;20270;-77
2023/01/29 05:10:41;;;;;;;5.93;2.60;;;;;;;1.86;56.48;98281.47;4930245;28;20258;-76
2023/01/29 05:13:09;;;;;;;5.65;3.22;;;;;;;1.93;56.52;98279.84;4911101;28;20713;-76
2023/01/29 05:15:37;;;;;;;4.88;2.67;;;;;;;1.89;57.65;98294.00;4930048;28;20184;-76
2023/01/29 05:18:07;;;;;;;3.97;2.58;;;;;;;1.92;56.96;98301.38;4914965;28;20293;-76
2023/01/29 05:20:34;;;;;;;5.25;3.03;;;;;;;1.87;56.41;98290.78;4906772;28;20200;-76
2023/01/29 05:23:00;;;;;;;3.35;2.60;;;;;;;1.84;56.53;98294.47;4926444;28;20292;-76
2023/01/29 05:25:29;;;;;;;7.30;2.50;;;;;;;1.93;56.67;98302.97;4929744;28;20226;-76
2023/01/29 05:28:15;;;;;;;4.18;2.50;;;;;;;1.82;57.27;98291.25;4924157;28;20277;-76
2023/01/29 05:30:40;;;;;;;4.57;2.67;;;;;;;1.86;57.77;98299.44;4946127;28;20691;-76
2023/01/29 05:33:29;;;;;;;5.15;3.47;;;;;;;2.01;57.44;98294.47;4941256;28;20184;-76
2023/01/29 05:35:55;;;;;;;6.35;3.30;;;;;;;1.89;57.31;98299.13;4927568;28;20204;-76
2023/01/29 05:38:21;;;;;;;4.53;2.72;;;;;;;1.85;57.63;98292.69;4939438;28;20207;-76
2023/01/29 05:40:47;;;;;;;5.25;2.75;;;;;;;1.87;57.34;98298.50;4929397;28;20288;-76
2023/01/29 05:43:23;;;;;;;6.22;3.40;;;;;;;1.93;57.45;98308.09;4908370;28;20280;-76
2023/01/29 05:45:59;;;;;;;4.00;2.70;;;;;;;1.81;56.85;98304.25;4928955;28;20213;-76
2023/01/29 05:48:26;;;;;;;6.38;3.22;;;;;;;1.67;57.43;98303.91;4946103;28;20654;-77
2023/01/29 05:50:51;;;;;;;4.07;2.70;;;;;;;1.73;56.75;98311.94;4939182;28;20318;-76
2023/01/29 05:53:17;;;;;;;5.90;2.80;;;;;;;1.82;56.17;98298.16;4945257;28;20364;-76
2023/01/29 05:55:44;;;;;;;7.25;3.67;;;;;;;1.80;55.47;98295.75;4919776;28;20238;-76
2023/01/29 05:58:09;;;;;;;4.40;2.42;;;;;;;1.86;55.27;98289.97;4939943;28;20772;-76
2023/01/29 06:00:35;;;;;;;6.40;3.03;;;;;;;1.78;54.86;98284.03;4941325;28;20348;-75
2023/01/29 06:03:00;;;;;;;3.83;2.33;;;;;;;1.67;55.11;98278.25;4917104;28;20295;-76
2023/01/29 06:05:26;;;;;;;5.18;2.17;;;;;;;1.80;55.44;98287.22;4929089;28;20321;-76
2023/01/29 06:07:51;;;;;;;3.95;2.50;;;;;;;1.69;56.40;98276.31;4941762;28;20196;-76
2023/01/29 06:10:17;;;;;;;6.13;2.70;;;;;;;1.61;55.16;98284.03;4915674;28;20756;-76
2023/01/29 06:12:46;;;;;;;6.20;3.00;;;;;;;1.51;56.21;98293.66;4916158;28;20823;-76
2023/01/29 06:15:14;;;;;;;4.90;3.20;;;;;;;1.43;56.32;98291.06;4910122;28;20354;-76
2023/01/29 06:17:39;;;;;;;5.72;2.90;;;;;;;1.56;55.87;98299.13;4929435;28;20200;-76
2023/01/29 06:20:06;;;;;;;6.35;2.95;;;;;;;1.62;55.41;98295.91;4930904;28;20201;-76
2023/01/29 06:22:31;;;;;;;4.57;2.60;;;;;;;1.61;55.78;98296.88;4920014;28;20184;-76
2023/01/29 06:24:57;;;;;;;6.20;3.22;;;;;;;1.60;54.88;98300.38;4927965;28;20211;-76
2023/01/29 06:27:22;;;;;;;6.68;3.70;;;;;;;1.61;55.68;98303.75;4925552;28;20196;-75
2023/01/29 06:29:47;;;;;;;4.60;2.67;;;;;;;1.56;55.16;98306.00;4942147;28;20583;-75
2023/01/29 06:32:13;;;;;;;6.53;2.97;;;;;;;1.64;55.58;98306.81;4926025;28;20752;-76
2023/01/29 06:34:38;;;;;;;5.20;2.50;;;;;;;1.67;55.39;98306.50;4933689;28;20203;-76
2023/01/29 06:37:03;;;;;;;5.35;2.55;;;;;;;1.73;55.77;98294.81;4939746;28;20194;-76
2023/01/29 06:39:29;;;;;;;3.88;2.22;;;;;;;1.63;56.13;98282.09;4926144;28;20615;-76
2023/01/29 06:41:54;;;;;;;4.07;2.33;;;;;;;1.62;55.60;98275.34;4944329;28;20195;-76
2023/01/29 06:44:20;;;;;;;4.80;2.80;;;;;;;1.60;57.26;98268.78;4911516;28;20235;-76
2023/01/29 06:46:45;;;;;;;4.63;3.00;;;;;;;1.74;56.78;98277.63;4942369;28;20211;-76
2023/01/29 06:49:10;;;;;;;4.57;2.67;;;;;;;1.66;56.81;98275.84;4944292;28;20156;-76
2023/01/29 06:51:36;;;;;;;6.93;2.58;;;;;;;1.61;57.09;98289.19;4941959;28;21795;-76
2023/01/29 06:54:01;;;;;;;4.55;2.80;;;;;;;1.68;56.86;98285.00;4934931;28;20286;-76
2023/01/29 06:56:26;;;;;;;5.13;2.70;;;;;;;1.80;56.48;98284.66;4947090;28;20177;-76
2023/01/29 06:58:52;;;;;;;5.55;2.95;;;;;;;1.75;56.96;98281.78;4924053;28;20195;-76
2023/01/29 07:01:17;;;;;;;6.05;3.85;;;;;;;1.72;56.74;98279.56;4944024;28;20295;-76
2023/01/29 07:03:42;;;;;;;5.32;3.13;;;;;;;1.72;56.98;98282.91;4916838;28;20255;-76
2023/01/29 07:06:08;;;;;;;5.05;2.90;;;;;;;1.72;57.19;98280.34;4924929;28;20249;-76
2023/01/29 07:08:38;;;;;;;5.15;3.13;;;;;;;1.83;56.74;98285.19;4936757;28;20266;-76
2023/01/29 07:11:04;;;;;;;5.95;3.20;;;;;;;1.73;57.45;98288.84;4944123;28;20193;-76
2023/01/29 07:13:29;;;;;;;4.68;2.75;;;;;;;1.71;57.04;98294.13;4943143;28;20271;-75
2023/01/29 07:16:02;;;;;;;4.65;2.75;;;;;;;1.79;56.83;98290.78;4942135;28;20289;-76
2023/01/29 07:18:27;;;;;;;5.57;3.28;;;;;;;1.60;55.75;98297.81;4945725;28;20195;-76
2023/01/29 07:20:53;;;;;;;4.70;3.20;;;;;;;1.58;57.14;98298.97;4924782;28;20654;-76
2023/01/29 07:23:18;;;;;;;4.32;2.97;;;;;;;1.59;57.34;98303.91;4924078;28;20267;-76
2023/01/29 07:25:44;;;;;;;4.60;2.88;;;;;;;1.59;57.63;98303.13;4942651;28;20179;-76
2023/01/29 07:28:10;;;;;;;4.95;2.97;;;;;;;1.54;57.11;98301.00;4927932;28;20276;-76
2023/01/29 07:30:35;;;;;;;4.80;3.85;;;;;;;1.54;57.77;98308.72;4942792;28;20109;-76
2023/01/29 07:33:05;;;;;;;6.38;3.42;;;;;;;1.68;57.17;98305.53;4924489;28;20199;-77
2023/01/29 07:35:34;;;;;;;6.03;4.18;;;;;;;1.62;57.64;98305.38;4937039;28;20290;-76
2023/01/29 07:38:00;;;;;;;6.90;3.90;;;;;;;1.66;57.57;98294.63;4938133;28;20283;-76
2023/01/29 07:40:25;;;;;;;4.88;3.30;;;;;;;1.73;57.20;98297.38;4939779;28;20202;-76
2023/01/29 07:42:50;;;;;;;5.00;3.10;;;;;;;1.66;57.47;98297.19;4933222;28;20593;-76
2023/01/29 07:45:16;;;;;;;5.28;3.17;;;;;;;1.66;57.34;98302.34;4944386;28;20289;-76
2023/01/29 07:47:41;;;;;;;6.43;4.15;;;;;;;1.65;57.52;98310.97;4928182;28;20310;-75
2023/01/29 07:50:07;;;;;;;10.73;6.30;;;;;;;1.57;57.32;98325.56;4943882;28;20724;-75
2023/01/29 07:52:32;;;;;;;8.48;3.97;;;;;;;1.55;57.74;98314.66;4932294;28;20205;-76
2023/01/29 07:54:58;;;;;;;6.82;3.17;;;;;;;1.62;56.82;98306.16;4943070;28;20273;-76
2023/01/29 07:57:24;;;;;;;5.45;3.42;;;;;;;1.55;56.94;98310.31;4943878;28;20219;-76
2023/01/29 07:59:49;;;;;;;6.53;3.63;;;;;;;1.61;56.46;98325.13;4946688;28;20235;-76
2023/01/29 08:02:14;;;;;;;4.90;2.88;;;;;;;1.55;57.62;98324.94;4942717;28;20083;-76
2023/01/29 08:04:40;;;;;;;5.90;3.33;;;;;;;1.64;56.80;98316.28;4908042;28;20293;-76
2023/01/29 08:07:05;;;;;;;8.30;3.00;;;;;;;1.67;56.13;98323.66;4938688;28;20283;-76
2023/01/29 08:09:30;;;;;;;5.65;3.15;;;;;;;1.62;56.68;98326.69;4938518;28;20563;-76
2023/01/29 08:11:56;;;;;;;8.35;6.63;;;;;;;1.60;56.83;98332.97;4925860;28;20208;-76
2023/01/29 08:14:22;;;;;;;7.00;5.03;;;;;;;1.59;57.85;98327.00;4903634;28;20664;-76
2023/01/29 08:16:48;;;;;;;9.00;5.25;;;;;;;1.64;57.28;98329.09;4920182;28;20571;-76
2023/01/29 08:19:13;;;;;;;6.75;4.50;;;;;;;1.65;57.31;98326.38;4933784;28;20337;-76
2023/01/29 08:21:38;;;;;;;5.43;3.78;;;;;;;1.66;56.50;98327.19;4895420;28;20261;-76
2023/01/29 08:24:04;;;;;;;6.57;3.88;;;;;;;1.69;56.81;98342.28;4923290;28;20188;-76
2023/01/29 08:26:29;;;;;;;6.30;3.40;;;;;;;1.73;56.48;98343.59;4943980;28;20374;-76
2023/01/29 08:28:55;;;;;;;5.75;2.72;;;;;;;1.84;56.74;98355.31;4926428;28;20594;-76
2023/01/29 08:31:20;;;;;;;7.82;3.78;;;;;;;1.95;56.11;98336.19;4923430;28;20803;-76
2023/01/29 08:33:45;;;;;;;11.35;5.53;;;;;;;2.10;55.59;98341.50;4939085;28;20264;-76
2023/01/29 08:36:11;;;;;;;7.93;4.25;;;;;;;2.10;55.60;98336.38;4897069;28;20192;-76
2023/01/29 08:38:36;;;;;;;7.32;4.57;;;;;;;2.02;56.36;98337.16;4923479;28;20290;-76
2023/01/29 08:41:02;;;;;;;8.43;4.45;;;;;;;2.10;55.31;98333.81;4942577;28;20305;-76
2023/01/29 08:43:29;;;;;;;6.88;4.70;;;;;;;2.14;55.68;98335.06;4921521;28;20272;-76
2023/01/29 08:45:54;;;;;;;5.88;3.42;;;;;;;2.15;55.63;98329.78;4926651;28;20289;-77
2023/01/29 08:48:19;;;;;;;6.18;3.58;;;;;;;2.16;54.98;98338.28;4940883;28;20197;-76
2023/01/29 08:50:45;;;;;;;6.93;3.63;;;;;;;2.21;56.06;98344.56;4944123;28;20570;-76
2023/01/29 08:53:10;;;;;;;5.35;3.20;;;;;;;2.30;55.04;98347.91;4929808;28;20373;-76
2023/01/29 08:55:37;;;;;;;5.45;3.58;;;;;;;2.28;54.83;98337.00;4946098;28;20895;-77
2023/01/29 08:58:04;;;;;;;10.60;5.65;;;;;;;2.21;54.59;98339.41;4943689;28;20161;-76
2023/01/29 09:00:30;;;;;;;11.95;6.43;;;;;;;2.24;55.34;98340.84;4907960;28;20211;-76
2023/01/29 09:02:58;;;;;;;8.23;4.55;;;;;;;2.22;53.98;98332.50;4930151;28;20204;-76
2023/01/29 09:05:23;;;;;;;4.90;3.38;;;;;;;2.20;54.81;98319.81;4945694;28;20192;-76
2023/01/29 09:07:49;;;;;;;5.50;3.38;;;;;;;2.21;54.24;98307.75;4927284;28;20234;-76
2023/01/29 09:10:14;;;;;;;4.75;3.28;;;;;;;2.11;54.63;98289.97;4944834;28;20122;-76
2023/01/29 09:12:40;;;;;;;6.00;3.53;;;;;;;2.23;54.38;98285.31;4947375;28;20211;-76
2023/01/29 09:15:05;;;;;;;4.95;3.13;;;;;;;2.09;54.70;98283.38;4945193;28;20207;-76
2023/01/29 09:17:31;;;;;;;7.15;3.10;;;;;;;2.44;54.77;98272.72;4939179;28;20204;-76
2023/01/29 09:19:57;;;;;;;4.40;2.75;;;;;;;2.53;54.07;98272.69;4926798;28;20227;-76
2023/01/29 09:22:23;;;;;;;4.55;2.85;;;;;;;2.65;54.18;98265.44;4946806;28;20201;-76
2023/01/29 09:24:48;;;;;;;4.60;2.92;;;;;;;2.58;53.69;98275.56;4910266;28;20164;-76
2023/01/29 09:27:13;;;;;;;4.97;3.40;;;;;;;2.55;53.74;98286.19;4931258;28;20258;-77
2023/01/29 09:29:39;;;;;;;5.10;2.70;;;;;;;2.76;53.41;98289.00;4933448;28;20301;-77
2023/01/29 09:32:04;;;;;;;5.18;2.60;;;;;;;2.76;53.22;98294.16;4909462;28;20193;-77
2023/01/29 09:34:30;;;;;;;6.55;3.25;;;;;;;2.77;53.02;98306.03;4930153;28;20540;-76
2023/01/29 09:36:55;;;;;;;4.28;2.63;;;;;;;2.79;52.55;98301.53;4943141;28;20427;-77
2023/01/29 09:39:20;;;;;;;4.72;2.90;;;;;;;2.96;53.09;98293.75;4926685;28;20142;-77
2023/01/29 09:42:07;;;;;;;5.60;2.97;;;;;;;3.16;52.57;98305.22;4912175;28;20200;-77
2023/01/29 09:44:51;;;;;;;4.85;2.92;;;;;;;3.06;52.64;98312.34;4946419;28;20260;-77
2023/01/29 09:47:18;;;;;;;6.88;2.83;;;;;;;3.06;52.09;98304.63;4946502;28;20168;-76
2023/01/29 09:50:04;;;;;;;5.30;3.03;;;;;;;3.21;51.40;98302.16;4947688;28;20199;-76
2023/01/29 09:52:58;;;;;;;6.45;3.30;;;;;;;3.32;52.30;98309.47;4923775;28;20188;-77
2023/01/29 09:55:27;;;;;;;4.97;3.00;;;;;;;3.11;53.47;98310.09;4943711;28;20216;-76
2023/01/29 09:57:56;;;;;;;5.45;3.25;;;;;;;3.22;52.15;98314.03;4928378;28;20238;-77
2023/01/29 10:00:44;;;;;;;5.35;2.97;;;;;;;3.67;51.18;98316.88;4946316;28;20199;-76
2023/01/29 10:03:24;;;;;;;4.65;2.75;;;;;;;3.49;50.49;98327.41;4947892;28;20281;-77
2023/01/29 10:06:04;;;;;;;4.78;3.05;;;;;;;3.52;51.94;98325.31;4944315;28;20545;-77
2023/01/29 10:08:35;;;;;;;5.05;3.45;;;;;;;3.49;51.13;98317.13;4929299;28;20586;-76
2023/01/29 10:11:18;;;;;;;5.18;3.25;;;;;;;3.37;50.89;98316.72;4944545;28;20161;-76
2023/01/29 10:13:54;;;;;;;4.78;3.35;;;;;;;3.53;51.20;98314.03;4946309;28;20195;-76
2023/01/29 10:16:56;;;;;;;3.88;2.90;;;;;;;3.58;51.27;98323.03;4928917;28;20180;-76
2023/01/29 10:19:46;;;;;;;4.50;3.13;;;;;;;3.58;52.12;98334.13;4931565;28;20630;-76
2023/01/29 10:22:17;;;;;;;4.43;2.88;;;;;;;3.58;51.84;98333.31;4939101;28;20311;-76
2023/01/29 10:24:51;;;;;;;7.57;4.07;;;;;;;3.65;51.53;98329.91;4926334;28;20250;-77
2023/01/29 10:27:17;;;;;;;5.15;3.00;;;;;;;3.52;50.94;98333.03;4942375;28;20177;-76
2023/01/29 10:29:44;;;;;;;3.47;2.08;;;;;;;3.43;51.08;98336.63;4943309;28;20211;-76
2023/01/29 10:32:21;;;;;;;5.50;3.00;;;;;;;3.55;51.23;98340.44;4926065;28;20240;-77
2023/01/29 10:34:51;;;;;;;4.03;2.67;;;;;;;3.50;51.28;98329.03;4939351;28;20188;-77
2023/01/29 10:37:22;;;;;;;6.70;3.80;;;;;;;3.38;52.40;98329.41;4944292;28;20280;-77
2023/01/29 10:39:47;;;;;;;4.90;2.83;;;;;;;3.36;52.02;98328.00;4939867;28;20203;-76
2023/01/29 10:42:23;;;;;;;6.40;2.92;;;;;;;3.67;51.28;98311.72;4941766;28;20637;-76
2023/01/29 10:45:07;;;;;;;4.90;3.08;;;;;;;3.60;51.68;98315.91;4930249;28;20208;-77
2023/01/29 10:47:44;;;;;;;4.75;2.92;;;;;;;3.54;52.17;98307.91;4946842;28;20642;-78
2023/01/29 10:50:12;;;;;;;4.50;2.50;;;;;;;3.51;52.54;98310.03;4950214;28;20290;-78
2023/01/29 10:53:02;;;;;;;3.83;2.70;;;;;;;3.64;51.58;98306.91;4950903;28;20271;-78
2023/01/29 10:55:40;;;;;;;4.05;2.60;;;;;;;3.61;51.13;98300.31;4948097;28;20183;-79
2023/01/29 10:58:17;;;;;;;5.03;2.90;;;;;;;3.57;50.57;98296.47;4947849;28;20360;-78
2023/01/29 11:00:42;;;;;;;4.15;2.75;;;;;;;3.48;51.69;98295.72;4899952;28;20026;-78
2023/01/29 11:03:15;;;;;;;4.30;3.13;;;;;;;3.48;53.04;98290.59;4932365;28;20162;-77
2023/01/29 11:06:16;;;;;;;5.95;3.13;;;;;;;3.58;51.48;98292.91;4948751;28;20273;-78
2023/01/29 11:08:53;;;;;;;4.50;3.00;;;;;;;3.60;51.41;98292.75;4937365;28;20368;-79
2023/01/29 11:11:21;;;;;;;4.32;2.67;;;;;;;3.81;50.22;98272.31;4936324;28;20226;-78
2023/01/29 11:14:06;;;;;;;6.45;3.25;;;;;;;3.92;49.63;98265.94;4941678;28;20277;-78
2023/01/29 11:16:40;;;;;;;4.30;2.88;;;;;;;3.99;48.96;98260.88;4943864;28;20249;-78
2023/01/29 11:19:05;;;;;;;4.43;2.42;;;;;;;4.11;49.64;98249.16;4940490;28;20168;-78
2023/01/29 11:21:31;;;;;;;3.80;2.50;;;;;;;4.19;48.76;98249.09;4945682;28;20203;-78
2023/01/29 11:24:16;;;;;;;4.22;2.42;;;;;;;4.52;48.57;98247.97;4942038;28;20274;-78
2023/01/29 11:26:42;;;;;;;5.65;3.05;;;;;;;4.37;48.65;98235.88;4904725;28;20286;-78
2023/01/29 11:29:28;;;;;;;4.53;2.70;;;;;;;4.45;49.62;98234.97;4906868;28;20223;-78
2023/01/29 11:31:53;;;;;;;3.97;2.63;;;;;;;4.49;48.77;98233.66;4919579;28;20224;-78
2023/01/29 11:34:28;;;;;;;4.03;2.60;;;;;;;4.50;47.60;98224.91;4935499;28;20208;-78
2023/01/29 11:36:58;;;;;;;4.05;2.70;;;;;;;4.31;48.43;98221.91;4926665;28;20277;-78
2023/01/29 11:39:26;;;;;;;5.47;3.05;;;;;;;4.16;48.64;98215.16;4921707;28;20466;-78
2023/01/29 11:42:04;;;;;;;4.72;2.75;;;;;;;4.28;50.13;98214.53;4915134;28;20033;-78
2023/01/29 11:44:33;;;;;;;7.07;3.00;;;;;;;4.30;49.54;98204.03;4918596;28;20026;-78
2023/01/29 11:47:19;;;;;;;4.95;3.20;;;;;;;4.58;49.21;98206.78;4903175;28;20173;-78
2023/01/29 11:49:47;;;;;;;5.65;3.28;;;;;;;4.64;49.47;98198.31;4938928;28;20182;-78
2023/01/29 11:52:14;;;;;;;4.32;3.13;;;;;;;4.80;49.81;98193.94;4925143;28;20194;-78
2023/01/29 11:54:46;;;;;;;4.63;3.25;;;;;;;4.97;48.94;98192.72;4919506;28;20610;-78
2023/01/29 11:57:23;;;;;;;5.78;3.42;;;;;;;5.32;48.37;98181.75;4935320;28;20254;-78
2023/01/29 11:59:50;;;;;;;3.90;2.97;;;;;;;5.34;47.97;98174.59;4931786;28;20625;-78
2023/01/29 12:02:26;;;;;;;3.92;3.22;;;;;;;5.39;48.09;98180.00;4927297;28;20309;-78
2023/01/29 12:04:54;;;;;;;4.70;3.15;;;;;;;5.29;47.12;98172.56;4935307;28;20183;-78
2023/01/29 12:07:19;;;;;;;4.72;3.25;;;;;;;5.22;46.97;98166.53;4925782;28;20189;-77
2023/01/29 12:09:55;;;;;;;5.25;3.88;;;;;;;5.06;46.96;98163.22;4945033;28;20216;-78
2023/01/29 12:12:33;;;;;;;4.32;3.22;;;;;;;4.92;47.17;98161.50;4910722;28;20791;-78
2023/01/29 12:15:25;;;;;;;5.05;3.55;;;;;;;4.86;47.28;98168.19;4905834;28;20208;-77
2023/01/29 12:17:55;;;;;;;5.57;3.60;;;;;;;4.71;48.81;98174.38;4956616;28;20600;-78
2023/01/29 12:20:27;;;;;;;4.68;3.53;;;;;;;4.49;48.48;98164.03;4912565;28;20526;-78
2023/01/29 12:22:59;;;;;;;4.65;3.45;;;;;;;4.51;48.83;98159.47;4955076;28;20268;-77